Time;durP1;ratioP1;P1;durP2;ratioP2;P2;SDS_P1;SDS_P2;PMS_P1;PMS_P2;Temp;Humidity;BMP_temperature;BMP_pressure;BME280_temperature;BME280_humidity;BME280_pressure;Samples;Min_cycle;Max_cycle;Signal;HPM_P1;HPM_P2
2022/12/21 00:01:28;;;;;;;73.43;31.10;;;9.60;99.90;;;;;;5040258;28;20029;-69
2022/12/21 00:03:56;;;;;;;71.13;29.80;;;9.60;99.90;;;;;;5043682;28;20056;-72
2022/12/21 00:06:23;;;;;;;61.10;27.00;;;9.60;99.90;;;;;;5058846;28;20028;-69
2022/12/21 00:08:50;;;;;;;46.83;23.15;;;9.50;99.90;;;;;;5050572;28;20083;-69
2022/12/21 00:11:25;;;;;;;39.45;18.48;;;9.50;99.90;;;;;;5057604;28;20107;-68
2022/12/21 00:13:52;;;;;;;35.25;16.70;;;9.40;99.90;;;;;;5043095;28;20021;-67
2022/12/21 00:16:20;;;;;;;37.30;17.02;;;9.40;99.90;;;;;;5060396;28;20028;-69
2022/12/21 00:18:46;;;;;;;34.25;15.68;;;9.40;99.90;;;;;;5060831;28;20025;-69
2022/12/21 00:21:21;;;;;;;32.35;14.60;;;9.40;99.90;;;;;;5056520;28;20105;-69
2022/12/21 00:23:48;;;;;;;37.17;14.57;;;9.30;99.90;;;;;;5042305;28;20032;-69
2022/12/21 00:26:16;;;;;;;30.60;12.77;;;9.40;99.90;;;;;;5044236;28;20049;-71
2022/12/21 00:28:41;;;;;;;30.42;13.73;;;9.30;99.90;;;;;;5059605;28;20051;-69
2022/12/21 00:31:12;;;;;;;31.35;13.82;;;9.30;99.90;;;;;;5059054;28;20033;-73
2022/12/21 00:33:39;;;;;;;26.52;13.00;;;9.30;99.90;;;;;;5059436;28;20048;-71
2022/12/21 00:36:07;;;;;;;32.85;14.18;;;9.20;99.90;;;;;;5058609;28;20118;-71
2022/12/21 00:38:33;;;;;;;31.50;12.40;;;9.20;99.90;;;;;;5056821;28;20025;-69
2022/12/21 00:41:02;;;;;;;30.50;13.93;;;9.20;99.90;;;;;;5058871;28;20059;-72
2022/12/21 00:43:29;;;;;;;33.28;14.50;;;9.30;99.90;;;;;;5046415;28;20051;-70
2022/12/21 00:45:54;;;;;;;30.55;12.88;;;9.20;99.90;;;;;;5058997;28;20035;-69
2022/12/21 00:48:20;;;;;;;38.92;15.05;;;9.30;99.90;;;;;;5058790;28;20021;-70
2022/12/21 00:50:47;;;;;;;30.83;13.07;;;9.30;99.90;;;;;;5052447;28;20116;-72
2022/12/21 00:53:14;;;;;;;33.95;13.00;;;9.20;99.90;;;;;;5041591;28;20074;-71
2022/12/21 00:55:39;;;;;;;38.70;15.02;;;9.20;99.90;;;;;;5051690;28;20124;-70
2022/12/21 00:58:05;;;;;;;29.70;12.32;;;9.30;99.90;;;;;;5059185;28;20057;-70
2022/12/21 01:00:30;;;;;;;33.78;14.77;;;9.30;99.90;;;;;;5053454;28;20032;-73
2022/12/21 01:02:56;;;;;;;34.35;14.27;;;9.20;99.90;;;;;;5048845;28;20037;-68
2022/12/21 01:05:22;;;;;;;33.97;14.07;;;9.20;99.90;;;;;;5059005;28;20101;-70
2022/12/21 01:07:47;;;;;;;37.70;14.65;;;9.20;99.90;;;;;;5041247;28;20024;-69
2022/12/21 01:10:14;;;;;;;30.92;12.70;;;9.20;99.90;;;;;;5058359;28;20043;-72
2022/12/21 01:12:40;;;;;;;36.80;12.90;;;9.20;99.90;;;;;;5058652;28;20063;-72
2022/12/21 01:15:06;;;;;;;33.88;12.15;;;9.20;99.90;;;;;;5058086;28;20025;-71
2022/12/21 01:17:33;;;;;;;30.98;13.57;;;9.20;99.90;;;;;;5058048;28;20048;-71
2022/12/21 01:20:00;;;;;;;32.92;12.65;;;9.20;99.90;;;;;;5058351;28;20096;-71
2022/12/21 01:22:25;;;;;;;37.35;13.60;;;9.20;99.90;;;;;;5057807;28;20032;-71
2022/12/21 01:24:51;;;;;;;32.78;12.25;;;9.20;99.90;;;;;;5045596;28;20268;-69
2022/12/21 01:27:16;;;;;;;34.85;13.55;;;9.30;99.90;;;;;;5054271;28;20025;-73
2022/12/21 01:29:42;;;;;;;33.60;12.52;;;9.20;99.90;;;;;;5058420;28;20062;-69
2022/12/21 01:32:07;;;;;;;29.40;13.05;;;9.20;99.90;;;;;;5058240;28;20565;-69
2022/12/21 01:34:33;;;;;;;31.30;13.55;;;9.30;99.90;;;;;;5057097;28;20060;-71
2022/12/21 01:36:58;;;;;;;40.75;12.98;;;9.20;99.90;;;;;;5047422;28;20402;-70
2022/12/21 01:39:24;;;;;;;33.17;12.65;;;9.20;99.90;;;;;;5053044;28;20082;-70
2022/12/21 01:41:50;;;;;;;36.10;14.07;;;9.20;99.90;;;;;;5058819;28;20021;-70
2022/12/21 01:44:51;;;;;;;32.28;14.15;;;9.20;99.90;;;;;;5040971;28;20037;-69
2022/12/21 01:47:23;;;;;;;38.80;14.90;;;9.10;99.90;;;;;;5057133;28;20044;-72
2022/12/21 01:49:55;;;;;;;34.47;15.55;;;9.10;99.90;;;;;;5056800;28;20032;-69
2022/12/21 01:52:22;;;;;;;35.60;15.20;;;9.10;99.90;;;;;;5039342;28;20040;-70
2022/12/21 01:54:55;;;;;;;41.03;16.55;;;9.10;99.90;;;;;;5052270;28;20017;-69
2022/12/21 01:57:21;;;;;;;44.85;17.63;;;9.10;99.90;;;;;;5050447;28;20024;-68
2022/12/21 01:59:50;;;;;;;43.65;17.23;;;9.00;99.90;;;;;;5049194;28;20031;-68
2022/12/21 02:02:38;;;;;;;44.20;17.98;;;9.00;99.90;;;;;;5039747;28;20043;-68
2022/12/21 02:05:14;;;;;;;44.00;17.25;;;9.00;99.90;;;;;;5048794;28;20033;-70
2022/12/21 02:07:42;;;;;;;43.75;17.50;;;8.90;99.90;;;;;;5048854;28;20021;-70
2022/12/21 02:10:08;;;;;;;55.83;19.75;;;8.90;99.90;;;;;;5048326;28;20014;-70
2022/12/21 02:12:35;;;;;;;54.35;19.75;;;8.90;99.90;;;;;;5047942;28;20022;-68
2022/12/21 02:15:01;;;;;;;52.70;19.30;;;8.90;99.90;;;;;;5049001;28;20071;-70
2022/12/21 02:17:47;;;;;;;59.08;19.30;;;8.90;99.90;;;;;;5048554;28;20039;-69
2022/12/21 02:20:24;;;;;;;60.13;19.35;;;8.80;99.90;;;;;;5050043;28;20038;-72
2022/12/21 02:23:08;;;;;;;48.58;18.23;;;8.80;99.90;;;;;;5030299;28;20033;-70
2022/12/21 02:25:53;;;;;;;64.80;20.48;;;8.80;99.90;;;;;;5047098;28;20028;-71
2022/12/21 02:28:18;;;;;;;59.55;20.05;;;8.80;99.90;;;;;;5029913;28;20052;-69
2022/12/21 02:31:03;;;;;;;56.78;18.25;;;8.80;99.90;;;;;;5047609;28;20025;-69
2022/12/21 02:33:40;;;;;;;52.75;19.52;;;8.80;99.90;;;;;;5030594;28;20055;-69
2022/12/21 02:36:19;;;;;;;52.50;20.25;;;8.80;99.90;;;;;;5046993;28;20037;-69
2022/12/21 02:39:14;;;;;;;55.33;20.13;;;8.80;99.90;;;;;;5030747;28;20021;-70
2022/12/21 02:44:12;;;;;;;60.38;19.40;;;8.70;99.90;;;;;;5047865;28;20092;-70
2022/12/21 02:45:09;;;;;;;62.33;19.65;;;8.70;99.90;;;;;;5047562;28;20037;-69
2022/12/21 02:47:47;;;;;;;57.75;19.27;;;8.70;99.90;;;;;;5030825;28;20931;-69
2022/12/21 02:50:14;;;;;;;60.15;19.92;;;8.70;99.90;;;;;;5047745;28;20041;-70
2022/12/21 02:52:58;;;;;;;56.88;19.73;;;8.60;99.90;;;;;;5048093;28;20017;-74
2022/12/21 02:55:27;;;;;;;57.42;19.25;;;8.60;99.90;;;;;;5046643;28;20029;-69
2022/12/21 02:58:15;;;;;;;55.58;20.30;;;8.60;99.90;;;;;;5046783;28;20036;-70
2022/12/21 03:00:55;;;;;;;51.80;20.02;;;8.60;99.90;;;;;;5047170;28;20051;-73
2022/12/21 03:03:49;;;;;;;64.47;19.98;;;8.60;99.90;;;;;;5046489;28;20397;-69
2022/12/21 03:06:29;;;;;;;49.50;18.30;;;8.60;99.90;;;;;;5041200;28;20466;-72
2022/12/21 03:09:20;;;;;;;54.03;18.13;;;8.60;99.90;;;;;;5047157;28;20724;-68
2022/12/21 03:12:06;;;;;;;54.22;18.23;;;8.60;99.90;;;;;;5046684;28;20025;-69
2022/12/21 03:15:07;;;;;;;50.25;18.63;;;8.50;99.90;;;;;;5047697;28;20025;-69
2022/12/21 03:17:39;;;;;;;48.03;17.45;;;8.50;99.90;;;;;;5026129;28;20028;-72
2022/12/21 03:20:25;;;;;;;55.03;20.27;;;8.50;99.90;;;;;;5046209;28;20056;-71
2022/12/21 03:23:17;;;;;;;51.03;18.85;;;8.40;99.90;;;;;;5047270;28;20080;-69
2022/12/21 03:25:54;;;;;;;50.03;18.27;;;8.40;99.90;;;;;;5046939;28;20096;-68
2022/12/21 03:28:26;;;;;;;48.20;19.38;;;8.40;99.90;;;;;;5047642;28;20477;-70
2022/12/21 03:30:55;;;;;;;42.70;18.55;;;8.40;99.90;;;;;;5047809;28;20041;-69
2022/12/21 03:33:25;;;;;;;52.65;18.27;;;8.40;99.90;;;;;;5047430;28;20466;-71
2022/12/21 03:35:57;;;;;;;47.67;17.42;;;8.40;99.90;;;;;;5047832;28;20052;-70
2022/12/21 03:38:46;;;;;;;48.30;18.08;;;8.40;99.90;;;;;;5047639;28;20025;-70
2022/12/21 03:41:30;;;;;;;46.13;17.65;;;8.30;99.90;;;;;;5027879;28;20048;-70
2022/12/21 03:44:00;;;;;;;42.50;18.33;;;8.30;99.90;;;;;;5046312;28;20048;-71
2022/12/21 03:46:31;;;;;;;62.53;17.60;;;8.30;99.90;;;;;;5029611;28;20036;-68
2022/12/21 03:49:09;;;;;;;76.30;18.98;;;8.20;99.90;;;;;;5047355;28;20034;-69
2022/12/21 03:51:43;;;;;;;247.68;21.33;;;8.20;99.90;;;;;;5048925;28;20036;-69
2022/12/21 03:54:38;;;;;;;211.05;18.90;;;8.20;99.90;;;;;;5049154;28;20118;-69
2022/12/21 03:57:06;;;;;;;293.83;20.65;;;8.20;99.90;;;;;;5049679;28;20032;-70
2022/12/21 03:59:32;;;;;;;297.58;19.83;;;8.20;99.90;;;;;;5048115;28;20481;-71
2022/12/21 04:02:10;;;;;;;216.27;19.08;;;8.20;99.90;;;;;;5032060;28;20028;-70
2022/12/21 04:05:13;;;;;;;216.40;21.67;;;8.20;99.90;;;;;;5031352;28;20064;-71
2022/12/21 04:07:40;;;;;;;162.25;18.45;;;8.10;99.90;;;;;;5047579;28;20036;-71
2022/12/21 04:10:09;;;;;;;196.02;18.08;;;8.20;99.90;;;;;;5029845;28;20112;-70
2022/12/21 04:12:38;;;;;;;300.70;20.27;;;8.10;99.90;;;;;;5047819;28;20548;-71
2022/12/21 04:15:23;;;;;;;192.57;18.27;;;8.10;99.90;;;;;;5047798;28;20026;-71
2022/12/21 04:17:51;;;;;;;211.27;18.83;;;8.20;99.90;;;;;;5047472;28;20025;-70
2022/12/21 04:20:23;;;;;;;174.45;17.27;;;8.10;99.90;;;;;;5025759;28;20113;-69
2022/12/21 04:28:24;;;;;;;221.27;17.83;;;8.10;99.90;;;;;;5039089;28;20101;-72
2022/12/21 04:30:50;;;;;;;135.75;16.58;;;8.10;99.90;;;;;;5039306;28;20057;-72
2022/12/21 04:33:18;;;;;;;91.22;17.83;;;8.10;99.90;;;;;;5039270;28;20040;-72
2022/12/21 04:38:32;;;;;;;126.35;16.05;;;8.10;99.90;;;;;;5043354;28;20098;-73
2022/12/21 04:40:58;;;;;;;156.25;19.45;;;8.00;99.90;;;;;;5042700;28;20036;-70
2022/12/21 04:43:24;;;;;;;107.88;19.45;;;8.00;99.90;;;;;;5043021;28;20561;-72
2022/12/21 04:46:02;;;;;;;69.78;19.65;;;8.00;99.90;;;;;;5041661;28;20026;-72
2022/12/21 04:48:28;;;;;;;131.65;20.05;;;8.00;99.90;;;;;;5042553;28;20445;-71
2022/12/21 04:50:54;;;;;;;89.13;20.73;;;8.00;99.90;;;;;;5042219;28;20507;-70
2022/12/21 04:53:19;;;;;;;244.90;22.40;;;8.00;99.90;;;;;;5042461;28;20013;-71
2022/12/21 04:55:45;;;;;;;209.35;19.80;;;8.10;99.90;;;;;;5042750;28;20033;-69
2022/12/21 04:58:11;;;;;;;356.17;21.20;;;8.00;99.90;;;;;;5043219;28;20052;-71
2022/12/21 05:00:37;;;;;;;395.67;22.92;;;8.00;99.90;;;;;;5042063;28;20104;-71
2022/12/21 05:03:03;;;;;;;469.10;23.77;;;8.00;99.90;;;;;;5043257;28;20614;-71
2022/12/21 05:05:29;;;;;;;165.00;18.13;;;8.00;99.90;;;;;;5024159;28;20079;-71
2022/12/21 05:07:55;;;;;;;339.77;21.23;;;8.00;99.90;;;;;;5024623;28;20026;-69
2022/12/21 05:10:21;;;;;;;200.23;17.45;;;8.00;99.90;;;;;;5042426;28;20033;-70
2022/12/21 05:12:47;;;;;;;369.33;20.60;;;7.90;99.90;;;;;;5024951;28;20079;-71
2022/12/21 05:15:13;;;;;;;200.70;18.67;;;7.90;99.90;;;;;;5042883;28;20021;-71
2022/12/21 05:17:43;;;;;;;192.15;17.10;;;7.90;99.90;;;;;;5042497;28;20120;-71
2022/12/21 05:20:09;;;;;;;252.57;18.80;;;7.90;99.90;;;;;;5047627;28;20060;-71
2022/12/21 05:22:35;;;;;;;225.50;18.17;;;7.90;99.90;;;;;;5061949;28;20100;-72
2022/12/21 05:25:00;;;;;;;185.00;16.85;;;7.80;99.90;;;;;;5044457;28;20069;-70
2022/12/21 05:27:26;;;;;;;208.68;18.40;;;7.80;99.90;;;;;;5042897;28;20089;-72
2022/12/21 05:29:51;;;;;;;121.60;18.23;;;7.80;99.90;;;;;;5062213;28;20037;-70
2022/12/21 05:32:17;;;;;;;252.77;19.33;;;7.80;99.90;;;;;;5062288;28;20021;-71
2022/12/21 05:34:43;;;;;;;161.55;17.13;;;7.70;99.90;;;;;;5061290;28;20025;-69
2022/12/21 05:37:08;;;;;;;259.70;18.52;;;7.80;99.90;;;;;;5043261;28;20074;-70
2022/12/21 05:39:34;;;;;;;180.30;18.25;;;7.70;99.90;;;;;;5062304;28;20043;-70
2022/12/21 05:42:01;;;;;;;231.73;19.05;;;7.70;99.90;;;;;;5044122;28;20036;-72
2022/12/21 05:44:28;;;;;;;148.55;17.92;;;7.70;99.90;;;;;;5060989;28;20112;-69
2022/12/21 05:46:53;;;;;;;156.35;18.13;;;7.70;99.90;;;;;;5061454;28;20033;-71
2022/12/21 05:49:19;;;;;;;120.85;18.15;;;7.70;99.90;;;;;;5061608;28;20039;-73
2022/12/21 05:51:48;;;;;;;274.52;22.70;;;7.70;99.90;;;;;;5061520;28;20100;-69
2022/12/21 05:54:15;;;;;;;153.10;30.98;;;7.60;99.90;;;;;;5043225;28;20048;-70
2022/12/21 05:56:40;;;;;;;158.75;19.27;;;7.70;99.90;;;;;;5061259;28;20021;-70
2022/12/21 05:59:06;;;;;;;144.23;18.92;;;7.60;99.90;;;;;;5061793;28;20025;-70
2022/12/21 06:01:33;;;;;;;94.43;17.05;;;7.60;99.90;;;;;;5060915;28;20021;-74
2022/12/21 06:03:58;;;;;;;68.13;17.25;;;7.60;99.90;;;;;;5043692;28;20036;-70
2022/12/21 06:06:24;;;;;;;117.53;19.27;;;7.60;99.90;;;;;;5061543;28;20043;-70
2022/12/21 06:08:50;;;;;;;105.10;17.52;;;7.70;99.90;;;;;;5061254;28;20029;-71
2022/12/21 06:11:18;;;;;;;100.15;18.15;;;7.70;99.90;;;;;;5042450;28;20117;-70
2022/12/21 06:13:43;;;;;;;69.63;16.85;;;7.70;99.90;;;;;;5061139;28;20080;-69
2022/12/21 06:16:14;;;;;;;156.02;17.00;;;7.70;99.90;;;;;;5043142;28;20048;-71
2022/12/21 06:18:40;;;;;;;105.50;16.98;;;7.70;99.90;;;;;;5042453;28;20032;-70
2022/12/21 06:21:08;;;;;;;138.82;17.92;;;7.70;99.90;;;;;;5028919;28;20049;-71
2022/12/21 06:23:36;;;;;;;137.25;17.75;;;7.70;99.90;;;;;;5041259;28;20060;-73
2022/12/21 06:26:03;;;;;;;60.35;16.35;;;7.70;99.90;;;;;;5041068;28;20383;-70
2022/12/21 06:28:30;;;;;;;233.23;20.05;;;7.60;99.90;;;;;;5041565;28;20021;-72
2022/12/21 06:31:04;;;;;;;201.40;18.83;;;7.60;99.90;;;;;;5023921;28;20352;-70
2022/12/21 06:33:30;;;;;;;104.60;17.52;;;7.60;99.90;;;;;;5041977;28;20085;-72
2022/12/21 06:35:56;;;;;;;223.98;20.42;;;7.60;99.90;;;;;;5040243;28;20075;-71
2022/12/21 06:38:23;;;;;;;100.68;16.90;;;7.60;99.90;;;;;;5041088;28;20045;-71
2022/12/21 06:40:56;;;;;;;264.05;20.35;;;7.60;99.90;;;;;;5040447;28;20029;-70
2022/12/21 06:43:22;;;;;;;213.17;19.40;;;7.60;99.90;;;;;;5023113;28;20406;-71
2022/12/21 06:46:01;;;;;;;143.77;17.55;;;7.50;99.90;;;;;;5037362;28;20029;-71
2022/12/21 06:48:28;;;;;;;125.13;17.00;;;7.60;99.90;;;;;;5038769;28;20098;-71
2022/12/21 06:50:56;;;;;;;213.60;19.75;;;7.60;99.90;;;;;;5038090;28;20029;-70
2022/12/21 06:53:23;;;;;;;201.27;18.65;;;7.60;99.90;;;;;;5021423;28;20037;-70
2022/12/21 06:55:49;;;;;;;265.63;20.48;;;7.60;99.90;;;;;;5021121;28;20827;-70
2022/12/21 06:58:16;;;;;;;153.85;20.77;;;7.60;99.90;;;;;;5032582;28;20240;-71
2022/12/21 07:00:41;;;;;;;205.20;20.25;;;7.60;99.90;;;;;;5036117;28;20040;-71
2022/12/21 07:03:07;;;;;;;211.25;20.15;;;7.60;99.90;;;;;;5021631;28;20482;-71
2022/12/21 07:05:34;;;;;;;273.15;20.73;;;7.60;99.90;;;;;;5038434;28;20060;-72
2022/12/21 07:08:01;;;;;;;197.55;21.17;;;7.60;99.90;;;;;;5038033;28;20041;-72
2022/12/21 07:10:26;;;;;;;279.17;22.63;;;7.60;99.90;;;;;;5022246;28;20033;-70
2022/12/21 07:12:52;;;;;;;270.60;21.33;;;7.60;99.90;;;;;;5038783;28;20048;-70
2022/12/21 07:15:17;;;;;;;393.58;23.08;;;7.60;99.90;;;;;;5038521;28;20470;-72
2022/12/21 07:17:43;;;;;;;291.58;22.60;;;7.60;99.90;;;;;;5037538;28;20033;-69
2022/12/21 07:20:09;;;;;;;159.85;21.25;;;7.50;99.90;;;;;;5046302;28;20478;-69
2022/12/21 07:22:35;;;;;;;255.50;21.02;;;7.60;99.90;;;;;;5057908;28;20043;-70
2022/12/21 07:25:01;;;;;;;305.55;22.38;;;7.60;99.90;;;;;;5058780;28;20037;-70
2022/12/21 07:27:26;;;;;;;230.70;19.58;;;7.60;99.90;;;;;;5057637;28;20515;-71
2022/12/21 07:29:52;;;;;;;304.42;22.33;;;7.60;99.90;;;;;;5059803;28;20420;-70
2022/12/21 07:32:17;;;;;;;146.15;20.58;;;7.60;99.90;;;;;;5059624;28;20039;-71
2022/12/21 07:34:43;;;;;;;280.73;21.40;;;7.50;99.90;;;;;;5059736;28;20037;-69
2022/12/21 07:37:08;;;;;;;186.35;21.25;;;7.60;99.90;;;;;;5040578;28;20028;-70
2022/12/21 07:39:34;;;;;;;293.00;22.13;;;7.60;99.90;;;;;;5059870;28;20021;-70
2022/12/21 07:42:00;;;;;;;226.35;21.55;;;7.60;99.90;;;;;;5041507;28;20041;-69
2022/12/21 07:44:25;;;;;;;89.32;20.58;;;7.60;99.90;;;;;;5038849;28;20043;-73
2022/12/21 07:46:51;;;;;;;141.43;19.88;;;7.60;99.90;;;;;;5059358;28;20027;-69
2022/12/21 07:49:16;;;;;;;173.90;20.50;;;7.60;99.90;;;;;;5039786;28;20025;-71
2022/12/21 07:51:42;;;;;;;62.05;19.48;;;7.60;99.90;;;;;;5057320;28;20032;-72
2022/12/21 07:54:08;;;;;;;239.15;20.92;;;7.60;99.90;;;;;;5038927;28;20049;-69
2022/12/21 07:56:33;;;;;;;112.88;22.77;;;7.60;99.90;;;;;;5057377;28;20052;-70
2022/12/21 07:59:00;;;;;;;287.38;22.95;;;7.60;99.90;;;;;;5059291;28;20041;-70
2022/12/21 08:01:26;;;;;;;173.65;22.73;;;7.60;99.90;;;;;;5056700;28;20089;-71
2022/12/21 08:03:52;;;;;;;271.13;24.70;;;7.60;99.90;;;;;;5059306;28;21426;-70
2022/12/21 08:06:18;;;;;;;329.67;25.70;;;7.60;99.90;;;;;;5058661;28;20120;-70
2022/12/21 08:08:44;;;;;;;339.15;24.88;;;7.60;99.90;;;;;;5040784;28;20430;-69
2022/12/21 08:11:16;;;;;;;352.05;26.23;;;7.60;99.90;;;;;;5062592;28;20017;-68
2022/12/21 08:13:43;;;;;;;255.93;23.98;;;7.60;99.90;;;;;;5062061;28;20080;-71
2022/12/21 08:16:14;;;;;;;234.43;24.65;;;7.60;99.90;;;;;;5042729;28;20147;-70
2022/12/21 08:18:41;;;;;;;213.35;23.30;;;7.60;99.90;;;;;;5062554;28;20114;-70
2022/12/21 08:21:06;;;;;;;187.38;22.80;;;7.60;99.90;;;;;;5060882;28;20049;-71
2022/12/21 08:23:32;;;;;;;172.35;22.80;;;7.60;99.90;;;;;;5060538;28;20037;-70
2022/12/21 08:26:05;;;;;;;254.57;25.88;;;7.60;99.90;;;;;;5063208;28;20025;-70
2022/12/21 08:28:31;;;;;;;171.25;23.33;;;7.70;99.90;;;;;;5062159;28;20025;-69
2022/12/21 08:31:03;;;;;;;195.10;24.88;;;7.60;99.90;;;;;;5062152;28;20109;-68
2022/12/21 08:33:29;;;;;;;129.02;23.10;;;7.70;99.90;;;;;;5062211;28;20027;-68
2022/12/21 08:35:55;;;;;;;142.55;25.55;;;7.60;99.90;;;;;;5062796;28;20025;-68
2022/12/21 08:38:20;;;;;;;243.68;26.65;;;7.60;99.90;;;;;;5062321;28;20033;-69
2022/12/21 08:40:46;;;;;;;299.88;27.48;;;7.70;99.90;;;;;;5062610;28;20504;-69
2022/12/21 08:43:12;;;;;;;335.40;29.00;;;7.70;99.90;;;;;;5062358;28;20032;-69
2022/12/21 08:45:39;;;;;;;414.65;31.05;;;7.70;99.90;;;;;;5043822;28;20052;-68
2022/12/21 08:48:05;;;;;;;206.88;29.00;;;7.70;99.90;;;;;;5062317;28;20017;-70
2022/12/21 08:50:30;;;;;;;304.30;30.77;;;7.70;99.90;;;;;;5061346;28;20103;-69
2022/12/21 08:52:56;;;;;;;397.50;33.63;;;7.70;99.90;;;;;;5060891;28;20040;-68
2022/12/21 08:55:21;;;;;;;133.88;29.60;;;7.70;99.90;;;;;;5061441;28;20048;-69
2022/12/21 08:57:50;;;;;;;357.08;33.33;;;7.70;99.90;;;;;;5060602;28;20102;-68
2022/12/21 09:00:16;;;;;;;237.75;33.13;;;7.80;99.90;;;;;;5043041;28;20021;-69
2022/12/21 09:02:41;;;;;;;198.88;33.17;;;7.80;99.90;;;;;;5059855;28;20080;-70
2022/12/21 09:05:07;;;;;;;236.35;30.50;;;7.80;99.90;;;;;;5040915;28;20675;-70
2022/12/21 09:07:33;;;;;;;295.92;33.63;;;7.80;99.90;;;;;;5060402;28;20033;-69
2022/12/21 09:09:59;;;;;;;175.98;31.50;;;7.80;99.90;;;;;;5060869;28;20025;-69
2022/12/21 09:12:24;;;;;;;198.52;33.65;;;7.90;99.90;;;;;;5059621;28;20143;-69
2022/12/21 09:14:50;;;;;;;169.63;29.60;;;7.90;99.90;;;;;;5061461;28;20095;-69
2022/12/21 09:17:16;;;;;;;213.10;34.65;;;7.90;99.90;;;;;;5060320;28;20039;-70
2022/12/21 09:19:42;;;;;;;360.25;33.58;;;8.00;99.90;;;;;;5041797;28;21132;-70
2022/12/21 09:22:08;;;;;;;140.98;32.20;;;8.00;99.90;;;;;;5058404;28;20028;-71
2022/12/21 09:24:34;;;;;;;154.20;36.15;;;8.00;99.90;;;;;;5060992;28;20040;-72
2022/12/21 09:27:00;;;;;;;139.65;34.20;;;8.10;99.90;;;;;;5039901;28;20021;-69
2022/12/21 09:29:25;;;;;;;131.77;33.28;;;8.10;99.90;;;;;;5060564;28;20024;-68
2022/12/21 09:31:51;;;;;;;142.80;34.33;;;8.10;99.90;;;;;;5041187;28;20013;-69
2022/12/21 09:34:18;;;;;;;121.45;32.50;;;8.10;99.90;;;;;;5054506;28;20017;-70
2022/12/21 09:36:44;;;;;;;123.45;30.75;;;8.10;99.90;;;;;;5042604;28;20148;-69
2022/12/21 09:39:10;;;;;;;133.10;34.25;;;8.10;99.90;;;;;;5060574;28;20021;-69
2022/12/21 09:41:57;;;;;;;118.57;30.30;;;8.10;99.90;;;;;;5059703;28;20072;-69
2022/12/21 09:44:26;;;;;;;128.20;32.47;;;8.00;99.90;;;;;;5054589;28;20104;-68
2022/12/21 09:46:55;;;;;;;120.38;31.75;;;8.00;99.90;;;;;;5058749;28;20033;-68
2022/12/21 09:49:26;;;;;;;132.88;33.05;;;8.00;99.90;;;;;;5039650;28;20070;-68
2022/12/21 09:51:56;;;;;;;129.88;32.30;;;8.00;99.90;;;;;;5057177;28;20029;-69
2022/12/21 09:54:39;;;;;;;130.00;33.05;;;8.00;99.90;;;;;;5058964;28;20021;-68
2022/12/21 09:57:06;;;;;;;140.88;32.65;;;8.00;99.90;;;;;;5030978;28;20048;-70
2022/12/21 09:59:32;;;;;;;144.57;33.97;;;8.00;99.90;;;;;;5053854;28;20029;-68
2022/12/21 10:02:34;;;;;;;149.93;34.40;;;8.00;99.90;;;;;;5058904;28;20033;-68
2022/12/21 10:05:06;;;;;;;143.48;33.63;;;8.00;99.90;;;;;;5058173;28;20051;-71
2022/12/21 10:07:59;;;;;;;148.23;34.00;;;8.00;99.90;;;;;;5040308;28;20058;-70
2022/12/21 10:10:38;;;;;;;134.68;33.28;;;8.10;99.90;;;;;;5060080;28;20025;-70
2022/12/21 10:13:29;;;;;;;141.80;34.75;;;8.10;99.90;;;;;;5059525;28;20036;-70
2022/12/21 10:16:41;;;;;;;129.93;32.45;;;8.10;99.90;;;;;;5059792;28;20032;-70
2022/12/21 10:20:10;;;;;;;138.15;33.72;;;8.10;99.90;;;;;;4999084;28;20030;-71
2022/12/21 10:22:47;;;;;;;129.15;32.63;;;8.20;99.90;;;;;;5023659;28;20072;-71
2022/12/21 10:25:20;;;;;;;122.22;33.35;;;8.20;99.90;;;;;;5029149;28;20033;-70
2022/12/21 10:27:54;;;;;;;138.73;33.50;;;8.20;99.90;;;;;;5041172;28;20034;-68
2022/12/21 10:30:20;;;;;;;125.82;34.10;;;8.40;99.90;;;;;;5050021;28;20053;-68
2022/12/21 10:32:47;;;;;;;144.77;35.17;;;8.30;99.90;;;;;;5050260;28;20021;-69
2022/12/21 10:35:17;;;;;;;146.60;37.28;;;8.30;99.90;;;;;;5050385;28;20486;-68
2022/12/21 10:37:53;;;;;;;113.50;31.80;;;8.30;99.90;;;;;;5030942;28;20040;-69
2022/12/21 10:40:25;;;;;;;114.50;31.73;;;8.20;99.90;;;;;;5032484;28;20028;-70
2022/12/21 10:42:53;;;;;;;129.38;35.28;;;8.20;99.90;;;;;;5050794;28;21218;-69
2022/12/21 10:45:22;;;;;;;120.03;32.72;;;8.20;99.90;;;;;;5051686;28;20021;-70
2022/12/21 10:47:48;;;;;;;106.05;31.23;;;8.20;99.90;;;;;;5050870;28;20047;-68
2022/12/21 10:50:33;;;;;;;117.60;29.80;;;8.20;99.90;;;;;;5032831;28;20101;-68
2022/12/21 10:53:18;;;;;;;106.70;30.27;;;8.20;99.90;;;;;;5046825;28;20691;-71
2022/12/21 10:55:44;;;;;;;109.93;32.70;;;8.20;99.90;;;;;;5051114;28;20032;-69
2022/12/21 10:58:20;;;;;;;117.63;35.72;;;8.20;99.90;;;;;;5050349;28;20049;-69
2022/12/21 11:01:05;;;;;;;112.25;34.20;;;8.20;99.90;;;;;;5031950;28;20136;-68
2022/12/21 11:03:38;;;;;;;108.07;30.40;;;8.30;99.90;;;;;;5049294;28;20339;-69
2022/12/21 11:06:17;;;;;;;109.80;32.42;;;8.30;99.90;;;;;;5025151;28;20101;-69
2022/12/21 11:08:51;;;;;;;115.13;30.58;;;8.30;99.90;;;;;;5048859;28;20044;-68
2022/12/21 11:11:37;;;;;;;98.28;30.48;;;8.40;99.90;;;;;;5048674;28;20018;-69
2022/12/21 11:14:16;;;;;;;95.35;28.88;;;8.40;99.90;;;;;;5048320;28;20021;-69
2022/12/21 11:16:44;;;;;;;108.53;31.10;;;8.40;99.90;;;;;;5030770;28;20025;-69
2022/12/21 11:19:16;;;;;;;90.20;29.08;;;8.40;99.90;;;;;;5048222;28;20477;-69
2022/12/21 11:21:49;;;;;;;94.75;28.42;;;8.40;99.90;;;;;;5056977;28;20139;-67
2022/12/21 11:24:32;;;;;;;79.03;25.30;;;8.40;99.90;;;;;;5058964;28;20366;-69
2022/12/21 11:27:20;;;;;;;84.53;27.25;;;8.40;99.90;;;;;;5060818;28;20036;-69
2022/12/21 11:29:55;;;;;;;80.10;26.20;;;8.40;99.90;;;;;;5040252;28;20445;-68
2022/12/21 11:32:21;;;;;;;80.05;27.83;;;8.40;99.90;;;;;;5059728;28;20400;-69
2022/12/21 11:34:58;;;;;;;80.22;25.73;;;8.50;99.90;;;;;;5059079;28;20033;-69
2022/12/21 11:37:36;;;;;;;87.78;28.73;;;8.40;99.90;;;;;;5039650;28;20056;-68
2022/12/21 11:40:11;;;;;;;75.53;26.05;;;8.40;99.90;;;;;;5059365;28;20021;-69
2022/12/21 11:42:55;;;;;;;70.45;24.95;;;8.40;99.90;;;;;;5038639;28;20044;-69
2022/12/21 11:45:25;;;;;;;85.05;26.30;;;8.50;99.90;;;;;;5043822;28;20068;-70
2022/12/21 11:48:16;;;;;;;85.60;27.15;;;8.60;99.90;;;;;;5057287;28;20095;-69
2022/12/21 11:50:45;;;;;;;86.20;25.98;;;8.90;99.90;;;;;;5042789;28;20024;-68
2022/12/21 11:53:11;;;;;;;79.30;26.00;;;9.10;99.90;;;;;;5061099;28;20029;-68
2022/12/21 11:55:54;;;;;;;62.08;23.23;;;9.30;99.90;;;;;;5046345;28;20043;-69
2022/12/21 11:58:25;;;;;;;74.75;25.40;;;9.50;99.90;;;;;;5063315;28;20025;-69
2022/12/21 12:01:13;;;;;;;71.05;25.33;;;9.70;99.90;;;;;;5064105;28;20033;-69
2022/12/21 12:03:56;;;;;;;68.60;24.48;;;9.90;99.90;;;;;;5063315;28;20051;-70
2022/12/21 12:06:36;;;;;;;78.47;23.98;;;10.00;99.90;;;;;;5063714;28;20029;-69
2022/12/21 12:09:33;;;;;;;71.47;22.50;;;10.00;99.90;;;;;;5055336;28;20040;-71
2022/12/21 12:12:19;;;;;;;61.67;22.10;;;10.00;99.90;;;;;;5064419;28;20596;-69
2022/12/21 12:14:56;;;;;;;61.35;21.80;;;10.00;99.90;;;;;;5063710;28;20033;-69
2022/12/21 12:17:36;;;;;;;63.15;22.80;;;9.90;99.90;;;;;;5062141;28;20036;-71
2022/12/21 12:20:27;;;;;;;65.72;22.20;;;9.90;99.90;;;;;;5057781;28;20057;-70
2022/12/21 12:23:31;;;;;;;58.55;24.42;;;10.00;99.90;;;;;;5023857;28;20050;-69
2022/12/21 12:26:20;;;;;;;62.70;23.50;;;10.10;99.90;;;;;;5041461;28;20021;-68
2022/12/21 12:28:51;;;;;;;59.35;23.45;;;10.30;99.90;;;;;;5041560;28;20037;-68
2022/12/21 12:31:38;;;;;;;55.28;21.77;;;10.50;99.90;;;;;;5041407;28;20030;-68
2022/12/21 12:34:23;;;;;;;54.90;21.63;;;10.70;99.90;;;;;;5040552;28;20021;-70
2022/12/21 12:37:08;;;;;;;58.97;22.92;;;10.80;99.90;;;;;;5042156;28;20048;-68
2022/12/21 12:39:50;;;;;;;61.72;23.23;;;10.90;99.90;;;;;;5034014;28;20071;-70
2022/12/21 12:42:26;;;;;;;60.92;23.35;;;11.00;99.90;;;;;;5041019;28;20052;-69
2022/12/21 12:44:59;;;;;;;64.10;23.73;;;11.20;99.90;;;;;;5040734;28;20037;-68
2022/12/21 12:47:43;;;;;;;61.90;22.58;;;11.30;99.90;;;;;;5041253;28;20085;-71
2022/12/21 12:50:23;;;;;;;58.10;21.88;;;11.20;99.90;;;;;;5041001;28;20497;-71
2022/12/21 12:53:07;;;;;;;55.22;21.05;;;11.10;99.90;;;;;;5042009;28;20030;-68
2022/12/21 12:55:47;;;;;;;61.75;24.27;;;10.90;99.90;;;;;;5039949;28;20137;-69
2022/12/21 12:59:04;;;;;;;57.45;22.77;;;10.60;99.90;;;;;;5039064;28;20057;-69
2022/12/21 13:01:43;;;;;;;67.82;24.27;;;10.20;99.90;;;;;;5004634;28;20402;-69
2022/12/21 13:04:14;;;;;;;63.30;23.52;;;10.00;99.90;;;;;;5039018;28;20034;-68